createdAt,value
2023-03-15T00:00:16.364Z,50.866695
2023-03-15T00:01:16.390Z,50.866695
2023-03-15T00:02:16.424Z,50.866695
2023-03-15T00:03:16.508Z,50.866695
2023-03-15T00:04:16.358Z,50.866844
2023-03-15T00:05:16.331Z,50.866699
2023-03-15T00:06:16.341Z,50.866795
2023-03-15T00:07:16.313Z,50.866665
2023-03-15T00:08:16.331Z,50.866730
2023-03-15T00:09:16.302Z,50.866734
2023-03-15T00:10:16.993Z,50.866726
2023-03-15T00:11:16.306Z,50.866684
2023-03-15T00:12:16.286Z,50.866741
2023-03-15T00:13:16.265Z,50.866791
2023-03-15T00:14:16.244Z,50.866798
2023-03-15T00:15:16.247Z,50.866810
2023-03-15T00:16:16.273Z,50.866772
2023-03-15T00:17:16.238Z,50.866764
2023-03-15T00:18:16.240Z,50.866768
2023-03-15T00:19:16.244Z,50.866772
2023-03-15T00:20:16.210Z,50.866741
2023-03-15T00:21:17.186Z,50.866783
2023-03-15T00:22:16.202Z,50.866695
2023-03-15T00:27:17.371Z,50.866741
2023-03-15T00:28:17.373Z,50.866772
2023-03-15T00:29:17.378Z,50.866734
2023-03-15T00:30:17.354Z,50.866764
2023-03-15T00:31:17.427Z,50.866737
2023-03-15T00:32:17.327Z,50.866745
2023-03-15T00:33:17.335Z,50.866753
2023-03-15T00:34:17.313Z,50.866722
2023-03-15T00:35:17.308Z,50.866737
2023-03-15T00:36:17.307Z,50.866745
2023-03-15T00:37:17.725Z,50.866741
2023-03-15T00:38:17.306Z,50.866718
2023-03-15T00:39:17.313Z,50.866711
2023-03-15T00:40:17.286Z,50.866749
2023-03-15T00:41:17.261Z,50.866756
2023-03-15T00:42:17.250Z,50.866722
2023-03-15T00:43:17.290Z,50.866692
2023-03-15T00:44:17.247Z,50.866703
2023-03-15T00:45:17.247Z,50.866688
2023-03-15T00:46:18.283Z,50.866711
2023-03-15T00:47:17.240Z,50.866703
2023-03-15T00:48:17.217Z,50.866699
2023-03-15T00:49:18.133Z,50.866714
2023-03-15T00:50:17.198Z,50.866688
2023-03-15T00:51:17.177Z,50.866703
2023-03-15T00:52:17.242Z,50.866692
2023-03-15T00:53:17.152Z,50.866718
2023-03-15T00:54:17.185Z,50.866711
2023-03-15T00:55:17.142Z,50.866734
2023-03-15T00:56:17.642Z,50.866726
2023-03-15T00:57:17.134Z,50.866737
2023-03-15T00:58:17.146Z,50.866768
2023-03-15T00:59:17.124Z,50.866768
2023-03-15T01:00:17.100Z,50.866798
2023-03-15T01:01:17.157Z,50.866776
2023-03-15T01:02:17.112Z,50.866779
2023-03-15T01:03:17.164Z,50.866776
2023-03-15T01:04:17.070Z,50.866772
2023-03-15T01:05:17.075Z,50.866760
2023-03-15T01:06:17.080Z,50.866749
2023-03-15T01:07:17.729Z,50.866749
2023-03-15T01:08:17.070Z,50.866776
2023-03-15T01:09:17.070Z,50.866779
2023-03-15T01:10:17.034Z,50.866795
2023-03-15T01:11:17.012Z,50.866798
2023-03-15T01:12:17.001Z,50.866779
2023-03-15T01:13:17.016Z,50.866787
2023-03-15T01:14:17.018Z,50.866776
2023-03-15T01:15:16.981Z,50.866791
2023-03-15T01:16:17.011Z,50.866810
2023-03-15T01:17:16.966Z,50.866840
2023-03-15T01:18:17.756Z,50.866825
2023-03-15T01:19:16.974Z,50.866825
2023-03-15T01:20:16.957Z,50.866772
2023-03-15T01:21:16.963Z,50.866741
2023-03-15T01:22:16.929Z,50.866722
2023-03-15T01:23:17.921Z,50.866764
2023-03-15T01:24:16.925Z,50.866787
2023-03-15T01:25:16.899Z,50.866829
2023-03-15T01:26:16.904Z,50.866821
2023-03-15T01:27:16.882Z,50.866802
2023-03-15T01:28:16.896Z,50.866760
2023-03-15T01:29:16.887Z,50.866756
2023-03-15T01:30:16.884Z,50.866787
2023-03-15T01:31:16.888Z,50.866741
2023-03-15T01:32:16.855Z,50.866734
2023-03-15T01:33:16.852Z,50.866764
2023-03-15T01:34:16.831Z,50.866772
2023-03-15T01:35:16.836Z,50.866669
2023-03-15T01:36:16.814Z,50.866734
2023-03-15T01:37:16.813Z,50.866760
2023-03-15T01:38:16.828Z,50.866756
2023-03-15T01:39:16.797Z,50.866798
2023-03-15T01:40:16.788Z,50.866791
2023-03-15T01:41:16.779Z,50.866772
2023-03-15T01:42:16.774Z,50.866642
2023-03-15T01:43:16.808Z,50.866745
2023-03-15T01:44:16.761Z,50.866673
2023-03-15T01:45:16.741Z,50.866741
2023-03-15T01:46:16.764Z,50.866802
2023-03-15T01:47:16.722Z,50.866749
2023-03-15T01:48:16.704Z,50.866772
2023-03-15T01:49:16.742Z,50.866776
2023-03-15T01:50:16.725Z,50.866711
2023-03-15T01:51:16.730Z,50.866711
2023-03-15T01:52:16.712Z,50.866711
2023-03-15T01:53:17.680Z,50.866650
2023-03-15T01:54:16.676Z,50.866669
2023-03-15T01:55:16.724Z,50.866680
2023-03-15T01:56:16.662Z,50.866707
2023-03-15T01:57:16.661Z,50.866722
2023-03-15T01:58:16.646Z,50.867012
2023-03-15T01:59:16.670Z,50.867462
2023-03-15T02:00:16.672Z,50.867123
2023-03-15T02:01:16.660Z,50.866798
2023-03-15T02:02:16.754Z,50.866673
2023-03-15T02:03:16.627Z,50.866840
2023-03-15T02:04:16.608Z,50.866936
2023-03-15T02:05:16.580Z,50.866810
2023-03-15T02:06:16.650Z,50.866814
2023-03-15T02:07:16.585Z,50.866852
2023-03-15T02:08:16.572Z,50.866848
2023-03-15T02:09:16.565Z,50.866898
2023-03-15T02:10:16.546Z,50.866898
2023-03-15T02:11:16.557Z,50.866901
2023-03-15T02:12:16.573Z,50.866898
2023-03-15T02:13:16.531Z,50.866890
2023-03-15T02:14:16.524Z,50.866936
2023-03-15T02:15:16.513Z,50.866924
2023-03-15T02:16:16.523Z,50.866982
2023-03-15T02:17:16.534Z,50.866955
2023-03-15T02:18:16.742Z,50.867008
2023-03-15T02:19:16.497Z,50.867035
2023-03-15T02:20:16.512Z,50.867004
2023-03-15T02:21:16.460Z,50.867001
2023-03-15T02:22:16.451Z,50.866989
2023-03-15T02:23:16.442Z,50.866962
2023-03-15T02:24:16.447Z,50.866898
2023-03-15T02:25:16.438Z,50.866951
2023-03-15T02:26:16.467Z,50.866978
2023-03-15T02:27:16.463Z,50.866871
2023-03-15T02:28:16.424Z,50.866940
2023-03-15T02:29:16.410Z,50.866901
2023-03-15T02:30:16.390Z,50.866959
2023-03-15T02:31:16.413Z,50.866951
2023-03-15T02:32:16.380Z,50.866962
2023-03-15T02:33:16.396Z,50.866879
2023-03-15T02:34:16.357Z,50.866856
2023-03-15T02:35:16.392Z,50.866844
2023-03-15T02:36:17.115Z,50.866875
2023-03-15T02:37:17.250Z,50.866817
2023-03-15T02:38:16.355Z,50.866810
2023-03-15T02:39:16.366Z,50.866848
2023-03-15T02:40:17.660Z,50.866829
2023-03-15T02:41:16.292Z,50.866837
2023-03-15T02:42:16.302Z,50.866837
2023-03-15T02:43:16.296Z,50.866917
2023-03-15T02:44:16.275Z,50.866814
2023-03-15T02:45:16.271Z,50.866879
2023-03-15T02:46:16.355Z,50.866852
2023-03-15T02:47:16.264Z,50.866848
2023-03-15T02:48:16.279Z,50.866859
2023-03-15T02:49:16.245Z,50.866837
2023-03-15T02:50:16.253Z,50.866798
2023-03-15T02:51:16.240Z,50.866760
2023-03-15T02:52:17.163Z,50.866814
2023-03-15T02:53:16.230Z,50.866840
2023-03-15T02:54:16.225Z,50.866768
2023-03-15T02:55:16.249Z,50.866795
2023-03-15T02:56:16.193Z,50.866779
2023-03-15T02:57:16.217Z,50.866810
2023-03-15T02:58:16.187Z,50.866833
2023-03-15T02:59:17.163Z,50.866848
2023-03-15T03:00:16.181Z,50.866856
2023-03-15T03:01:16.222Z,50.866840
2023-03-15T03:02:16.196Z,50.866863
2023-03-15T03:03:16.191Z,50.866848
2023-03-15T03:04:16.136Z,50.866810
2023-03-15T03:05:16.122Z,50.866814
2023-03-15T03:06:16.132Z,50.866795
2023-03-15T03:07:16.110Z,50.866867
2023-03-15T03:08:16.139Z,50.866829
2023-03-15T03:09:16.249Z,50.866833
2023-03-15T03:10:16.131Z,50.866802
2023-03-15T03:11:16.115Z,50.866867
2023-03-15T03:12:16.130Z,50.866821
2023-03-15T03:13:16.078Z,50.866848
2023-03-15T03:14:16.253Z,50.866825
2023-03-15T03:15:16.667Z,50.866829
2023-03-15T03:16:16.793Z,50.866867
2023-03-15T03:17:16.067Z,50.866840
2023-03-15T03:18:16.022Z,50.866875
2023-03-15T03:19:16.067Z,50.866814
2023-03-15T03:20:16.032Z,50.866821
2023-03-15T03:21:16.007Z,50.866821
2023-03-15T03:22:15.998Z,50.866795
2023-03-15T03:23:15.984Z,50.866806
2023-03-15T03:24:15.975Z,50.866741
2023-03-15T03:25:16.984Z,50.866776
2023-03-15T03:26:15.960Z,50.866779
2023-03-15T03:27:15.951Z,50.866787
2023-03-15T03:28:15.953Z,50.866768
2023-03-15T03:29:15.951Z,50.866707
2023-03-15T03:30:15.961Z,50.866711
2023-03-15T03:31:16.017Z,50.866688
2023-03-15T03:32:15.931Z,50.866688
2023-03-15T03:33:15.908Z,50.866703
2023-03-15T03:34:15.927Z,50.866760
2023-03-15T03:35:16.270Z,50.866787
2023-03-15T03:36:16.900Z,50.866791
2023-03-15T03:37:15.890Z,50.866734
2023-03-15T03:38:15.853Z,50.866722
2023-03-15T03:39:15.877Z,50.866772
2023-03-15T03:40:15.846Z,50.866810
2023-03-15T03:41:15.844Z,50.866772
2023-03-15T03:42:15.822Z,50.866768
2023-03-15T03:43:15.814Z,50.866776
2023-03-15T03:44:15.829Z,50.866806
2023-03-15T03:45:16.769Z,50.866772
2023-03-15T03:46:16.868Z,50.866730
2023-03-15T03:47:15.810Z,50.866772
2023-03-15T03:48:15.781Z,50.866749
2023-03-15T03:49:15.770Z,50.866749
2023-03-15T03:50:15.776Z,50.866779
2023-03-15T03:51:15.764Z,50.866768
2023-03-15T03:52:16.609Z,50.866852
2023-03-15T03:53:15.764Z,50.866844
2023-03-15T03:54:17.585Z,50.866833
2023-03-15T03:55:16.735Z,50.866859
2023-03-15T03:56:15.718Z,50.866730
2023-03-15T03:57:16.653Z,50.866741
2023-03-15T03:58:15.702Z,50.866814
2023-03-15T03:59:15.732Z,50.866730
2023-03-15T04:00:15.763Z,50.866730
2023-03-15T04:01:15.734Z,50.866703
2023-03-15T04:02:15.750Z,50.866722
2023-03-15T04:03:15.658Z,50.866707
2023-03-15T04:04:15.669Z,50.866776
2023-03-15T04:05:15.640Z,50.866776
2023-03-15T04:06:15.645Z,50.866692
2023-03-15T04:07:17.091Z,50.866718
2023-03-15T04:08:16.638Z,50.866737
2023-03-15T04:09:15.659Z,50.866791
2023-03-15T04:10:15.611Z,50.866760
2023-03-15T04:11:16.177Z,50.866825
2023-03-15T04:12:15.697Z,50.866814
2023-03-15T04:13:15.580Z,50.866814
2023-03-15T04:14:15.599Z,50.866814
2023-03-15T04:15:15.592Z,50.866814
2023-03-15T04:16:16.292Z,50.866810
2023-03-15T04:17:15.539Z,50.866798
2023-03-15T04:18:16.150Z,50.866848
2023-03-15T04:19:16.164Z,50.866772
2023-03-15T04:20:16.246Z,50.866848
2023-03-15T04:21:15.523Z,50.866817
2023-03-15T04:22:15.497Z,50.866806
2023-03-15T04:23:15.495Z,50.866814
2023-03-15T04:24:15.489Z,50.866837
2023-03-15T04:25:15.479Z,50.866844
2023-03-15T04:26:15.452Z,50.866787
2023-03-15T04:27:15.468Z,50.866848
2023-03-15T04:28:15.476Z,50.866772
2023-03-15T04:29:15.508Z,50.866814
2023-03-15T04:30:15.461Z,50.866833
2023-03-15T04:31:15.482Z,50.866783
2023-03-15T04:32:15.441Z,50.866917
2023-03-15T04:33:15.433Z,50.867043
2023-03-15T04:34:15.423Z,50.866962
2023-03-15T04:35:15.399Z,50.867008
2023-03-15T04:36:16.249Z,50.866974
2023-03-15T04:37:15.375Z,50.866982
2023-03-15T04:38:15.394Z,50.867031
2023-03-15T04:39:15.367Z,50.867073
2023-03-15T04:40:15.358Z,50.867077
2023-03-15T04:41:15.372Z,50.867077
2023-03-15T04:42:15.354Z,50.867172
2023-03-15T04:43:15.356Z,50.867264
2023-03-15T04:44:15.358Z,50.867210
2023-03-15T04:45:15.326Z,50.867119
2023-03-15T04:46:15.349Z,50.867008
2023-03-15T04:47:15.304Z,50.867001
2023-03-15T04:48:15.298Z,50.866978
2023-03-15T04:49:15.319Z,50.867195
2023-03-15T04:50:15.315Z,50.867142
2023-03-15T04:51:15.297Z,50.867180
2023-03-15T04:52:15.296Z,50.867115
2023-03-15T04:53:15.267Z,50.867050
2023-03-15T04:54:16.181Z,50.866985
2023-03-15T04:55:15.252Z,50.867058
2023-03-15T04:56:15.231Z,50.867046
2023-03-15T04:57:16.186Z,50.867008
2023-03-15T04:58:15.245Z,50.867012
2023-03-15T04:59:15.263Z,50.867027
2023-03-15T05:00:15.205Z,50.866737
2023-03-15T05:01:15.259Z,50.866737
2023-03-15T05:02:16.788Z,50.866909
2023-03-15T05:03:15.185Z,50.866985
2023-03-15T05:04:15.190Z,50.867046
2023-03-15T05:05:15.196Z,50.866989
2023-03-15T05:06:15.193Z,50.866966
2023-03-15T05:07:15.179Z,50.866997
2023-03-15T05:08:15.135Z,50.866917
2023-03-15T05:09:15.124Z,50.867031
2023-03-15T05:10:15.122Z,50.867020
2023-03-15T05:11:15.124Z,50.867008
2023-03-15T05:12:15.144Z,50.867073
2023-03-15T05:13:15.132Z,50.866879
2023-03-15T05:14:15.102Z,50.866901
2023-03-15T05:15:15.127Z,50.866970
2023-03-15T05:16:15.130Z,50.867050
2023-03-15T05:17:15.077Z,50.866829
2023-03-15T05:18:15.077Z,50.866791
2023-03-15T05:19:15.760Z,50.866779
2023-03-15T05:20:15.057Z,50.866764
2023-03-15T05:21:15.046Z,50.866711
2023-03-15T05:22:15.050Z,50.866772
2023-03-15T05:23:15.058Z,50.866673
2023-03-15T05:24:15.017Z,50.866680
2023-03-15T05:25:15.000Z,50.866699
2023-03-15T05:26:15.668Z,50.866684
2023-03-15T05:27:14.980Z,50.866623
2023-03-15T05:28:14.981Z,50.866680
2023-03-15T05:29:15.970Z,50.866623
2023-03-15T05:30:14.971Z,50.866737
2023-03-15T05:31:14.951Z,50.866760
2023-03-15T05:32:14.966Z,50.866772
2023-03-15T05:33:14.973Z,50.866787
2023-03-15T05:34:14.924Z,50.866772
2023-03-15T05:35:15.939Z,50.866737
2023-03-15T05:36:14.921Z,50.866688
2023-03-15T05:37:14.913Z,50.866699
2023-03-15T05:38:17.171Z,50.866756
2023-03-15T05:39:14.900Z,50.866783
2023-03-15T05:40:14.887Z,50.866756
2023-03-15T05:41:14.891Z,50.866760
2023-03-15T05:42:14.870Z,50.866802
2023-03-15T05:43:14.870Z,50.866867
2023-03-15T05:44:14.853Z,50.866821
2023-03-15T05:45:14.851Z,50.866787
2023-03-15T05:46:14.928Z,50.866821
2023-03-15T05:47:14.852Z,50.866802
2023-03-15T05:48:14.826Z,50.866848
2023-03-15T05:49:14.839Z,50.866817
2023-03-15T05:50:14.814Z,50.866783
2023-03-15T05:51:14.811Z,50.866764
2023-03-15T05:52:15.679Z,50.866676
2023-03-15T05:53:14.808Z,50.866756
2023-03-15T05:54:14.792Z,50.866779
2023-03-15T05:55:14.777Z,50.866837
2023-03-15T05:56:14.769Z,50.866795
2023-03-15T05:57:14.758Z,50.866783
2023-03-15T05:58:14.746Z,50.866772
2023-03-15T05:59:14.736Z,50.866802
2023-03-15T06:00:14.741Z,50.866756
2023-03-15T06:01:14.725Z,50.866726
2023-03-15T06:02:14.736Z,50.866768
2023-03-15T06:03:14.796Z,50.866787
2023-03-15T06:04:14.768Z,50.866852
2023-03-15T06:05:14.712Z,50.866749
2023-03-15T06:06:14.682Z,50.866802
2023-03-15T06:07:14.684Z,50.866810
2023-03-15T06:08:14.680Z,50.866764
2023-03-15T06:09:14.672Z,50.866688
2023-03-15T06:10:14.653Z,50.866699
2023-03-15T06:11:14.638Z,50.866741
2023-03-15T06:12:14.642Z,50.866772
2023-03-15T06:13:16.620Z,50.866688
2023-03-15T06:14:14.622Z,50.866680
2023-03-15T06:15:14.610Z,50.866753
2023-03-15T06:16:14.692Z,50.866638
2023-03-15T06:17:14.604Z,50.866638
2023-03-15T06:18:14.616Z,50.866699
2023-03-15T06:19:14.613Z,50.866699
2023-03-15T06:20:14.580Z,50.866848
2023-03-15T06:21:14.574Z,50.866814
2023-03-15T06:22:14.564Z,50.866756
2023-03-15T06:23:14.584Z,50.866753
2023-03-15T06:24:14.546Z,50.866791
2023-03-15T06:25:16.185Z,50.866810
2023-03-15T06:26:14.546Z,50.866886
2023-03-15T06:27:14.725Z,50.866867
2023-03-15T06:28:14.557Z,50.866783
2023-03-15T06:29:14.507Z,50.866772
2023-03-15T06:30:16.959Z,50.866741
2023-03-15T06:31:15.546Z,50.866760
2023-03-15T06:32:14.497Z,50.866787
2023-03-15T06:33:14.512Z,50.866787
2023-03-15T06:34:14.476Z,50.866760
2023-03-15T06:35:14.480Z,50.866776
2023-03-15T06:36:14.444Z,50.866776
2023-03-15T06:37:16.280Z,50.866795
2023-03-15T06:38:18.681Z,50.866776
2023-03-15T06:39:14.460Z,50.866760
2023-03-15T06:40:15.271Z,50.866760
2023-03-15T06:41:14.419Z,50.866772
2023-03-15T06:42:14.401Z,50.866749
2023-03-15T06:43:14.393Z,50.866753
2023-03-15T06:44:14.390Z,50.866768
2023-03-15T06:45:14.400Z,50.866734
2023-03-15T06:46:14.418Z,50.866730
2023-03-15T06:47:14.388Z,50.866749
2023-03-15T06:48:14.362Z,50.866741
2023-03-15T06:49:14.383Z,50.866753
2023-03-15T06:50:14.327Z,50.866753
2023-03-15T06:51:14.338Z,50.866741
2023-03-15T06:52:14.338Z,50.866741
2023-03-15T06:53:15.144Z,50.866764
2023-03-15T06:54:14.329Z,50.866760
2023-03-15T06:55:14.298Z,50.866764
2023-03-15T06:56:16.244Z,50.866741
2023-03-15T06:57:14.289Z,50.866726
2023-03-15T06:58:15.197Z,50.866756
2023-03-15T06:59:14.504Z,50.866741
2023-03-15T07:00:14.387Z,50.866741
2023-03-15T07:01:14.805Z,50.866730
2023-03-15T07:02:14.353Z,50.866741
2023-03-15T07:03:15.139Z,50.866714
2023-03-15T07:04:14.240Z,50.866756
2023-03-15T07:05:14.254Z,50.866772
2023-03-15T07:06:14.226Z,50.866734
2023-03-15T07:07:14.222Z,50.866756
2023-03-15T07:08:14.232Z,50.866711
2023-03-15T07:09:14.216Z,50.866707
2023-03-15T07:10:14.233Z,50.866707
2023-03-15T07:11:14.398Z,50.866756
2023-03-15T07:12:14.704Z,50.866699
2023-03-15T07:13:14.173Z,50.866680
2023-03-15T07:14:14.200Z,50.866714
2023-03-15T07:15:16.103Z,50.866703
2023-03-15T07:16:14.311Z,50.866692
2023-03-15T07:17:14.128Z,50.866676
2023-03-15T07:18:14.142Z,50.866661
2023-03-15T07:19:14.114Z,50.866699
2023-03-15T07:20:14.111Z,50.866692
2023-03-15T07:21:14.113Z,50.866684
2023-03-15T07:22:14.119Z,50.866676
2023-03-15T07:23:14.104Z,50.866680
2023-03-15T07:24:14.110Z,50.866695
2023-03-15T07:25:14.083Z,50.866695
2023-03-15T07:26:14.056Z,50.866673
2023-03-15T07:27:16.073Z,50.866703
2023-03-15T07:28:15.050Z,50.866699
2023-03-15T07:29:14.305Z,50.866737
2023-03-15T07:30:14.090Z,50.866756
2023-03-15T07:31:14.711Z,50.866722
2023-03-15T07:32:14.070Z,50.866726
2023-03-15T07:33:14.045Z,50.866718
2023-03-15T07:34:13.997Z,50.866711
2023-03-15T07:35:13.981Z,50.866722
2023-03-15T07:36:14.009Z,50.866699
2023-03-15T07:37:14.010Z,50.866707
2023-03-15T07:38:13.954Z,50.866695
2023-03-15T07:39:15.686Z,50.866726
2023-03-15T07:40:14.687Z,50.866714
2023-03-15T07:41:13.933Z,50.866703
2023-03-15T07:42:13.938Z,50.866737
2023-03-15T07:43:13.945Z,50.866745
2023-03-15T07:44:13.959Z,50.866695
2023-03-15T07:45:13.957Z,50.866695
2023-03-15T07:46:13.928Z,50.866722
2023-03-15T07:47:13.884Z,50.866695
2023-03-15T07:48:13.880Z,50.866718
2023-03-15T07:49:13.847Z,50.866753
2023-03-15T07:50:16.925Z,50.866745
2023-03-15T07:51:14.861Z,50.866798
2023-03-15T07:52:13.894Z,50.866814
2023-03-15T07:53:13.848Z,50.866802
2023-03-15T07:54:13.842Z,50.866707
2023-03-15T07:55:13.841Z,50.866749
2023-03-15T07:56:13.820Z,50.866802
2023-03-15T07:57:13.834Z,50.866749
2023-03-15T07:58:13.815Z,50.866741
2023-03-15T07:59:14.705Z,50.866764
2023-03-15T08:00:13.763Z,50.866772
2023-03-15T08:01:13.798Z,50.866776
2023-03-15T08:02:14.751Z,50.866760
2023-03-15T08:03:13.895Z,50.866776
2023-03-15T08:04:13.749Z,50.866768
2023-03-15T08:05:13.764Z,50.866779
2023-03-15T08:06:13.751Z,50.866764
2023-03-15T08:07:14.694Z,50.866741
2023-03-15T08:08:13.714Z,50.866718
2023-03-15T08:09:13.682Z,50.866688
2023-03-15T08:10:13.687Z,50.866692
2023-03-15T08:11:13.827Z,50.866718
2023-03-15T08:12:13.701Z,50.866703
2023-03-15T08:13:13.730Z,50.866695
2023-03-15T08:14:13.671Z,50.866707
2023-03-15T08:15:13.667Z,50.866734
2023-03-15T08:16:13.728Z,50.866776
2023-03-15T08:17:14.191Z,50.866718
2023-03-15T08:18:13.631Z,50.866714
2023-03-15T08:19:14.288Z,50.866711
2023-03-15T08:20:13.634Z,50.866722
2023-03-15T08:21:13.610Z,50.866726
2023-03-15T08:22:13.619Z,50.866699
2023-03-15T08:23:14.215Z,50.866676
2023-03-15T08:24:13.616Z,50.866673
2023-03-15T08:25:13.576Z,50.866676
2023-03-15T08:26:13.613Z,50.866665
2023-03-15T08:27:13.552Z,50.866688
2023-03-15T08:28:13.546Z,50.866634
2023-03-15T08:29:13.544Z,50.866600
2023-03-15T08:30:13.548Z,50.866600
2023-03-15T08:31:13.563Z,50.866695
2023-03-15T08:32:13.530Z,50.866741
2023-03-15T08:33:13.512Z,50.866676
2023-03-15T08:34:13.525Z,50.866745
2023-03-15T08:35:15.792Z,50.866714
2023-03-15T08:36:14.546Z,50.866768
2023-03-15T08:37:13.463Z,50.866493
2023-03-15T08:38:13.479Z,50.866299
2023-03-15T08:39:13.489Z,50.866310
2023-03-15T08:40:13.479Z,50.866405
2023-03-15T08:41:13.475Z,50.866245
2023-03-15T08:42:13.519Z,50.866295
2023-03-15T08:43:13.443Z,50.866558
2023-03-15T08:44:13.430Z,50.866718
2023-03-15T08:45:14.209Z,50.866714
2023-03-15T08:46:13.430Z,50.866756
2023-03-15T08:47:13.403Z,50.866749
2023-03-15T08:48:13.404Z,50.866714
2023-03-15T08:49:14.191Z,50.866714
2023-03-15T08:50:13.416Z,50.866749
2023-03-15T08:51:13.385Z,50.866749
2023-03-15T08:52:13.356Z,50.866753
2023-03-15T08:53:13.350Z,50.866772
2023-03-15T08:54:13.361Z,50.866776
2023-03-15T08:55:13.796Z,50.866776
2023-03-15T08:56:13.322Z,50.866779
2023-03-15T08:57:13.324Z,50.866787
2023-03-15T08:58:13.324Z,50.866814
2023-03-15T08:59:19.403Z,50.866810
2023-03-15T09:00:15.328Z,50.866821
2023-03-15T09:01:13.300Z,50.866783
2023-03-15T09:02:13.881Z,50.866806
2023-03-15T09:03:13.280Z,50.866817
2023-03-15T09:04:13.323Z,50.866821
2023-03-15T09:05:13.275Z,50.866802
2023-03-15T09:06:13.239Z,50.866791
2023-03-15T09:07:13.234Z,50.866802
2023-03-15T09:08:13.253Z,50.866802
2023-03-15T09:09:13.296Z,50.866806
2023-03-15T09:10:13.207Z,50.866814
2023-03-15T09:11:13.254Z,50.866825
2023-03-15T09:12:13.192Z,50.866894
2023-03-15T09:13:13.183Z,50.866875
2023-03-15T09:14:13.304Z,50.866856
2023-03-15T09:15:13.185Z,50.866856
2023-03-15T09:16:13.169Z,50.866814
2023-03-15T09:17:13.201Z,50.866791
2023-03-15T09:18:13.150Z,50.866787
2023-03-15T09:19:13.152Z,50.866802
2023-03-15T09:20:14.151Z,50.866768
2023-03-15T09:21:13.119Z,50.866814
2023-03-15T09:22:16.547Z,50.866787
2023-03-15T09:23:15.801Z,50.866837
2023-03-15T09:24:13.775Z,50.866856
2023-03-15T09:25:13.113Z,50.866795
2023-03-15T09:26:13.129Z,50.866768
2023-03-15T09:27:13.082Z,50.866806
2023-03-15T09:28:13.327Z,50.866840
2023-03-15T09:29:13.623Z,50.866802
2023-03-15T09:30:13.152Z,50.866825
2023-03-15T09:31:13.171Z,50.866859
2023-03-15T09:32:13.031Z,50.866783
2023-03-15T09:33:13.082Z,50.866814
2023-03-15T09:34:13.043Z,50.866756
2023-03-15T09:35:13.769Z,50.866783
2023-03-15T09:36:13.329Z,50.866798
2023-03-15T09:37:12.987Z,50.866779
2023-03-15T09:38:13.001Z,50.866749
2023-03-15T09:39:13.009Z,50.866821
2023-03-15T09:40:13.023Z,50.866859
2023-03-15T09:41:12.968Z,50.866894
2023-03-15T09:42:13.983Z,50.866924
2023-03-15T09:43:12.952Z,50.866879
2023-03-15T09:44:12.984Z,50.866802
2023-03-15T09:45:12.944Z,50.866806
2023-03-15T09:46:13.033Z,50.866760
2023-03-15T09:47:12.931Z,50.866772
2023-03-15T09:48:12.920Z,50.866791
2023-03-15T09:49:12.901Z,50.866737
2023-03-15T09:50:12.904Z,50.866756
2023-03-15T09:51:12.899Z,50.866776
2023-03-15T09:52:13.674Z,50.866795
2023-03-15T09:53:12.930Z,50.866772
2023-03-15T09:54:12.871Z,50.866791
2023-03-15T09:55:12.884Z,50.866825
2023-03-15T09:56:12.877Z,50.866871
2023-03-15T09:57:12.830Z,50.866772
2023-03-15T09:58:12.840Z,50.866703
2023-03-15T09:59:12.839Z,50.866833
2023-03-15T10:00:13.811Z,50.866852
2023-03-15T10:01:12.941Z,50.866795
2023-03-15T10:02:12.849Z,50.866760
2023-03-15T10:03:13.751Z,50.866779
2023-03-15T10:04:12.832Z,50.866817
2023-03-15T10:05:12.795Z,50.866772
2023-03-15T10:06:12.771Z,50.866756
2023-03-15T10:07:13.311Z,50.866718
2023-03-15T10:08:12.761Z,50.866806
2023-03-15T10:09:12.761Z,50.866867
2023-03-15T10:10:12.747Z,50.866821
2023-03-15T10:11:12.756Z,50.866863
2023-03-15T10:12:12.741Z,50.866772
2023-03-15T10:13:12.722Z,50.866726
2023-03-15T10:14:12.715Z,50.866711
2023-03-15T10:15:12.696Z,50.866688
2023-03-15T10:16:12.751Z,50.866692
2023-03-15T10:17:12.691Z,50.866730
2023-03-15T10:18:12.681Z,50.866695
2023-03-15T10:19:12.660Z,50.866699
2023-03-15T10:20:12.671Z,50.866707
2023-03-15T10:21:12.872Z,50.866699
2023-03-15T10:22:12.662Z,50.866692
2023-03-15T10:23:12.640Z,50.866665
2023-03-15T10:24:12.639Z,50.866653
2023-03-15T10:25:12.626Z,50.866680
2023-03-15T10:26:14.134Z,50.866692
2023-03-15T10:27:12.626Z,50.866673
2023-03-15T10:28:12.817Z,50.866634
2023-03-15T10:29:12.601Z,50.866627
2023-03-15T10:30:12.604Z,50.866604
2023-03-15T10:31:18.249Z,50.866653
2023-03-15T10:32:13.653Z,50.866665
2023-03-15T10:33:12.569Z,50.866718
2023-03-15T10:34:12.584Z,50.866848
2023-03-15T10:35:12.565Z,50.866837
2023-03-15T10:36:12.602Z,50.866844
2023-03-15T10:37:12.512Z,50.866829
2023-03-15T10:38:12.514Z,50.866798
2023-03-15T10:39:12.710Z,50.866867
2023-03-15T10:40:12.622Z,50.866879
2023-03-15T10:41:15.244Z,50.866859
2023-03-15T10:42:12.991Z,50.866936
2023-03-15T10:43:12.510Z,50.866951
2023-03-15T10:44:12.494Z,50.866962
2023-03-15T10:45:12.493Z,50.866951
2023-03-15T10:46:12.507Z,50.866959
2023-03-15T10:47:22.471Z,50.866917
2023-03-15T10:48:14.875Z,50.866951
2023-03-15T10:49:12.472Z,50.866962
2023-03-15T10:50:12.444Z,50.866974
2023-03-15T10:51:12.636Z,50.866955
2023-03-15T10:52:14.218Z,50.866966
2023-03-15T10:53:12.399Z,50.866943
2023-03-15T10:54:12.383Z,50.866978
2023-03-15T10:55:12.374Z,50.866871
2023-03-15T10:56:12.382Z,50.866844
2023-03-15T10:57:12.386Z,50.866905
2023-03-15T10:58:12.340Z,50.866959
2023-03-15T10:59:13.220Z,50.866985
2023-03-15T11:00:14.258Z,50.866890
2023-03-15T11:01:12.393Z,50.866867
2023-03-15T11:02:12.321Z,50.866890
2023-03-15T11:03:12.355Z,50.866817
2023-03-15T11:04:12.334Z,50.866753
2023-03-15T11:05:12.285Z,50.866783
2023-03-15T11:06:12.286Z,50.866772
2023-03-15T11:07:12.270Z,50.866806
2023-03-15T11:08:12.258Z,50.866798
2023-03-15T11:09:12.248Z,50.866798
2023-03-15T11:10:12.236Z,50.866764
2023-03-15T11:11:12.261Z,50.866821
2023-03-15T11:12:12.276Z,50.866802
2023-03-15T11:13:13.244Z,50.866787
2023-03-15T11:14:12.225Z,50.866795
2023-03-15T11:15:12.222Z,50.866783
2023-03-15T11:16:12.230Z,50.866787
2023-03-15T11:17:12.194Z,50.866791
2023-03-15T11:18:12.185Z,50.866776
2023-03-15T11:19:12.247Z,50.866760
2023-03-15T11:20:12.681Z,50.866756
2023-03-15T11:21:12.149Z,50.866760
2023-03-15T11:22:12.156Z,50.866772
2023-03-15T11:23:12.227Z,50.866783
2023-03-15T11:24:12.158Z,50.866776
2023-03-15T11:25:12.203Z,50.866764
2023-03-15T11:26:14.129Z,50.866768
2023-03-15T11:27:14.142Z,50.866760
2023-03-15T11:28:12.117Z,50.866760